METAR Data
IDs: Format: Raw Decoded Include TAF

Data at: 0244 UTC 15 Aug 2020

KSIY 150153Z AUTO 32009KT 10SM CLR 34/07 A2999 RMK AO2 SLP139 T03390067 TSNO